sensor_id;sensor_type;location;lat;lon;timestamp;temperature;humidity
12470;DHT22;36499;46.484;13.832;2023-04-03T00:02:15;9.30;99.90
12470;DHT22;36499;46.484;13.832;2023-04-03T00:04:42;9.20;99.90
12470;DHT22;36499;46.484;13.832;2023-04-03T00:07:10;9.20;99.90
12470;DHT22;36499;46.484;13.832;2023-04-03T00:09:39;9.20;99.90
12470;DHT22;36499;46.484;13.832;2023-04-03T00:12:06;9.30;99.90
12470;DHT22;36499;46.484;13.832;2023-04-03T00:14:33;9.30;99.90
12470;DHT22;36499;46.484;13.832;2023-04-03T00:17:00;9.30;99.90
12470;DHT22;36499;46.484;13.832;2023-04-03T00:19:28;9.30;99.90
12470;DHT22;36499;46.484;13.832;2023-04-03T00:21:55;9.30;99.90
12470;DHT22;36499;46.484;13.832;2023-04-03T00:24:22;9.30;99.90
12470;DHT22;36499;46.484;13.832;2023-04-03T00:26:51;9.30;99.90
12470;DHT22;36499;46.484;13.832;2023-04-03T00:29:18;9.30;99.90
12470;DHT22;36499;46.484;13.832;2023-04-03T00:31:45;9.30;99.90
12470;DHT22;36499;46.484;13.832;2023-04-03T00:34:12;9.30;99.90
12470;DHT22;36499;46.484;13.832;2023-04-03T00:36:39;9.30;99.90
12470;DHT22;36499;46.484;13.832;2023-04-03T00:39:07;9.30;99.90
12470;DHT22;36499;46.484;13.832;2023-04-03T00:41:34;9.30;99.90
12470;DHT22;36499;46.484;13.832;2023-04-03T00:44:20;9.20;99.90
12470;DHT22;36499;46.484;13.832;2023-04-03T00:46:48;9.20;99.90
12470;DHT22;36499;46.484;13.832;2023-04-03T00:49:15;9.20;99.90
12470;DHT22;36499;46.484;13.832;2023-04-03T00:51:43;9.20;99.90
12470;DHT22;36499;46.484;13.832;2023-04-03T00:54:10;9.30;99.90
12470;DHT22;36499;46.484;13.832;2023-04-03T00:56:39;9.30;99.90
12470;DHT22;36499;46.484;13.832;2023-04-03T00:59:09;9.30;99.90
12470;DHT22;36499;46.484;13.832;2023-04-03T01:01:42;9.30;99.90
12470;DHT22;36499;46.484;13.832;2023-04-03T01:04:26;9.20;99.90
12470;DHT22;36499;46.484;13.832;2023-04-03T01:06:55;9.20;99.90
12470;DHT22;36499;46.484;13.832;2023-04-03T01:09:26;9.20;99.90
12470;DHT22;36499;46.484;13.832;2023-04-03T01:11:53;9.10;99.90
12470;DHT22;36499;46.484;13.832;2023-04-03T01:14:20;9.10;99.90
12470;DHT22;36499;46.484;13.832;2023-04-03T01:16:54;9.10;99.90
12470;DHT22;36499;46.484;13.832;2023-04-03T01:19:22;9.10;99.90
12470;DHT22;36499;46.484;13.832;2023-04-03T01:22:05;9.00;99.90
12470;DHT22;36499;46.484;13.832;2023-04-03T01:24:42;9.00;99.90
12470;DHT22;36499;46.484;13.832;2023-04-03T01:27:10;8.90;99.90
12470;DHT22;36499;46.484;13.832;2023-04-03T01:29:39;8.80;99.90
12470;DHT22;36499;46.484;13.832;2023-04-03T01:32:08;8.80;99.90
12470;DHT22;36499;46.484;13.832;2023-04-03T01:34:35;8.80;99.90
12470;DHT22;36499;46.484;13.832;2023-04-03T01:37:03;8.70;99.90
12470;DHT22;36499;46.484;13.832;2023-04-03T01:39:30;8.60;99.90
12470;DHT22;36499;46.484;13.832;2023-04-03T01:41:57;8.40;99.90
12470;DHT22;36499;46.484;13.832;2023-04-03T01:44:25;8.40;99.90
12470;DHT22;36499;46.484;13.832;2023-04-03T01:46:52;8.30;99.90
12470;DHT22;36499;46.484;13.832;2023-04-03T01:49:20;8.20;99.90
12470;DHT22;36499;46.484;13.832;2023-04-03T01:51:47;8.20;99.90
12470;DHT22;36499;46.484;13.832;2023-04-03T01:54:15;8.20;99.90
12470;DHT22;36499;46.484;13.832;2023-04-03T01:56:42;8.10;99.90
12470;DHT22;36499;46.484;13.832;2023-04-03T01:59:09;8.10;99.90
12470;DHT22;36499;46.484;13.832;2023-04-03T02:01:36;8.10;99.90
12470;DHT22;36499;46.484;13.832;2023-04-03T02:04:03;8.10;99.90
12470;DHT22;36499;46.484;13.832;2023-04-03T02:06:32;8.00;99.90
12470;DHT22;36499;46.484;13.832;2023-04-03T02:08:59;7.90;99.90
12470;DHT22;36499;46.484;13.832;2023-04-03T02:11:26;8.00;99.90
12470;DHT22;36499;46.484;13.832;2023-04-03T02:13:54;8.00;99.90
12470;DHT22;36499;46.484;13.832;2023-04-03T02:16:21;8.00;99.90
12470;DHT22;36499;46.484;13.832;2023-04-03T02:18:48;7.90;99.90
12470;DHT22;36499;46.484;13.832;2023-04-03T02:21:15;7.80;99.90
12470;DHT22;36499;46.484;13.832;2023-04-03T02:23:43;7.80;99.90
12470;DHT22;36499;46.484;13.832;2023-04-03T02:26:13;7.60;99.90
12470;DHT22;36499;46.484;13.832;2023-04-03T02:28:42;7.50;99.90
12470;DHT22;36499;46.484;13.832;2023-04-03T02:31:10;7.30;99.90
12470;DHT22;36499;46.484;13.832;2023-04-03T02:33:37;7.10;99.90
12470;DHT22;36499;46.484;13.832;2023-04-03T02:36:06;7.00;99.90
12470;DHT22;36499;46.484;13.832;2023-04-03T02:38:34;7.00;99.90
12470;DHT22;36499;46.484;13.832;2023-04-03T02:41:04;6.90;99.90
12470;DHT22;36499;46.484;13.832;2023-04-03T02:43:33;6.80;99.90
12470;DHT22;36499;46.484;13.832;2023-04-03T02:46:01;6.80;99.90
12470;DHT22;36499;46.484;13.832;2023-04-03T02:48:29;6.70;99.90
12470;DHT22;36499;46.484;13.832;2023-04-03T02:50:56;6.60;99.90
12470;DHT22;36499;46.484;13.832;2023-04-03T02:53:24;6.40;99.90
12470;DHT22;36499;46.484;13.832;2023-04-03T02:55:51;6.40;99.90
12470;DHT22;36499;46.484;13.832;2023-04-03T02:58:19;6.40;99.90
12470;DHT22;36499;46.484;13.832;2023-04-03T03:00:47;6.40;99.90
12470;DHT22;36499;46.484;13.832;2023-04-03T03:03:14;6.40;99.90
12470;DHT22;36499;46.484;13.832;2023-04-03T03:05:41;6.40;99.90
12470;DHT22;36499;46.484;13.832;2023-04-03T03:08:08;6.40;99.90
12470;DHT22;36499;46.484;13.832;2023-04-03T03:10:35;6.30;99.90
12470;DHT22;36499;46.484;13.832;2023-04-03T03:13:02;6.20;99.90
12470;DHT22;36499;46.484;13.832;2023-04-03T03:15:31;6.20;99.90
12470;DHT22;36499;46.484;13.832;2023-04-03T03:17:58;6.10;99.90
12470;DHT22;36499;46.484;13.832;2023-04-03T03:20:25;6.10;99.90
12470;DHT22;36499;46.484;13.832;2023-04-03T03:22:53;6.10;99.90
12470;DHT22;36499;46.484;13.832;2023-04-03T03:25:20;6.00;99.90
12470;DHT22;36499;46.484;13.832;2023-04-03T03:27:47;5.90;99.90
12470;DHT22;36499;46.484;13.832;2023-04-03T03:30:15;5.80;99.90
12470;DHT22;36499;46.484;13.832;2023-04-03T03:32:43;5.90;99.90
12470;DHT22;36499;46.484;13.832;2023-04-03T03:35:10;6.00;99.90
12470;DHT22;36499;46.484;13.832;2023-04-03T03:37:38;6.00;99.90
12470;DHT22;36499;46.484;13.832;2023-04-03T03:40:06;6.00;99.90
12470;DHT22;36499;46.484;13.832;2023-04-03T03:42:34;5.80;99.90
12470;DHT22;36499;46.484;13.832;2023-04-03T03:45:01;5.70;99.90
12470;DHT22;36499;46.484;13.832;2023-04-03T03:47:29;5.60;99.90
12470;DHT22;36499;46.484;13.832;2023-04-03T03:49:58;5.60;99.90
12470;DHT22;36499;46.484;13.832;2023-04-03T03:52:25;5.50;99.90
12470;DHT22;36499;46.484;13.832;2023-04-03T03:54:52;5.50;99.90
12470;DHT22;36499;46.484;13.832;2023-04-03T03:57:20;5.40;99.90
12470;DHT22;36499;46.484;13.832;2023-04-03T03:59:47;5.20;99.90
12470;DHT22;36499;46.484;13.832;2023-04-03T04:02:14;5.10;99.90
12470;DHT22;36499;46.484;13.832;2023-04-03T04:04:41;5.10;99.90
12470;DHT22;36499;46.484;13.832;2023-04-03T04:07:10;5.00;99.90
12470;DHT22;36499;46.484;13.832;2023-04-03T04:09:37;4.90;99.90
12470;DHT22;36499;46.484;13.832;2023-04-03T04:12:04;4.90;99.90
12470;DHT22;36499;46.484;13.832;2023-04-03T04:14:32;4.80;99.90
12470;DHT22;36499;46.484;13.832;2023-04-03T04:16:59;4.70;99.90
12470;DHT22;36499;46.484;13.832;2023-04-03T04:19:27;4.60;99.90
12470;DHT22;36499;46.484;13.832;2023-04-03T04:21:55;4.60;99.90
12470;DHT22;36499;46.484;13.832;2023-04-03T04:24:23;4.60;99.90
12470;DHT22;36499;46.484;13.832;2023-04-03T04:26:51;4.60;99.90
12470;DHT22;36499;46.484;13.832;2023-04-03T04:29:18;4.50;99.90
12470;DHT22;36499;46.484;13.832;2023-04-03T04:31:45;4.40;99.90
12470;DHT22;36499;46.484;13.832;2023-04-03T04:34:12;4.40;99.90
12470;DHT22;36499;46.484;13.832;2023-04-03T04:36:39;4.50;99.90
12470;DHT22;36499;46.484;13.832;2023-04-03T04:39:07;4.50;99.90
12470;DHT22;36499;46.484;13.832;2023-04-03T04:41:36;4.40;99.90
12470;DHT22;36499;46.484;13.832;2023-04-03T04:44:03;4.30;99.90
12470;DHT22;36499;46.484;13.832;2023-04-03T04:46:30;4.30;99.90
12470;DHT22;36499;46.484;13.832;2023-04-03T04:48:58;4.40;99.90
12470;DHT22;36499;46.484;13.832;2023-04-03T04:51:25;4.40;99.90
12470;DHT22;36499;46.484;13.832;2023-04-03T04:53:52;4.40;99.90
12470;DHT22;36499;46.484;13.832;2023-04-03T04:56:19;4.40;99.90
12470;DHT22;36499;46.484;13.832;2023-04-03T04:58:48;4.40;99.90
12470;DHT22;36499;46.484;13.832;2023-04-03T05:01:16;4.40;99.90
12470;DHT22;36499;46.484;13.832;2023-04-03T05:03:44;4.40;99.90
12470;DHT22;36499;46.484;13.832;2023-04-03T05:06:11;4.50;99.90
12470;DHT22;36499;46.484;13.832;2023-04-03T05:08:38;4.50;99.90
12470;DHT22;36499;46.484;13.832;2023-04-03T05:11:05;4.50;99.90
12470;DHT22;36499;46.484;13.832;2023-04-03T05:13:33;4.50;99.90
12470;DHT22;36499;46.484;13.832;2023-04-03T05:16:02;4.60;99.90
12470;DHT22;36499;46.484;13.832;2023-04-03T05:18:29;4.60;99.90
12470;DHT22;36499;46.484;13.832;2023-04-03T05:20:56;4.60;99.90
12470;DHT22;36499;46.484;13.832;2023-04-03T05:23:24;4.70;99.90
12470;DHT22;36499;46.484;13.832;2023-04-03T05:25:52;4.70;99.90
12470;DHT22;36499;46.484;13.832;2023-04-03T05:28:20;4.70;99.90
12470;DHT22;36499;46.484;13.832;2023-04-03T05:30:52;4.70;99.90
12470;DHT22;36499;46.484;13.832;2023-04-03T05:33:24;4.70;99.90
12470;DHT22;36499;46.484;13.832;2023-04-03T05:35:52;4.70;99.90
12470;DHT22;36499;46.484;13.832;2023-04-03T05:38:19;4.70;99.90
12470;DHT22;36499;46.484;13.832;2023-04-03T05:40:46;4.70;99.90
12470;DHT22;36499;46.484;13.832;2023-04-03T05:43:14;4.70;99.90
12470;DHT22;36499;46.484;13.832;2023-04-03T05:45:42;4.80;99.90
12470;DHT22;36499;46.484;13.832;2023-04-03T05:48:09;4.70;99.90
12470;DHT22;36499;46.484;13.832;2023-04-03T05:50:38;4.70;99.90
12470;DHT22;36499;46.484;13.832;2023-04-03T05:53:08;4.70;99.90
12470;DHT22;36499;46.484;13.832;2023-04-03T05:55:42;4.70;99.90
12470;DHT22;36499;46.484;13.832;2023-04-03T05:58:09;4.70;99.90
12470;DHT22;36499;46.484;13.832;2023-04-03T06:00:36;4.80;99.90
12470;DHT22;36499;46.484;13.832;2023-04-03T06:03:03;4.80;99.90
12470;DHT22;36499;46.484;13.832;2023-04-03T06:05:31;4.80;99.90
12470;DHT22;36499;46.484;13.832;2023-04-03T06:08:00;4.80;99.90
12470;DHT22;36499;46.484;13.832;2023-04-03T06:10:28;4.80;99.90
12470;DHT22;36499;46.484;13.832;2023-04-03T06:12:56;4.80;99.90
12470;DHT22;36499;46.484;13.832;2023-04-03T06:15:23;4.90;99.90
12470;DHT22;36499;46.484;13.832;2023-04-03T06:17:50;5.00;99.90
12470;DHT22;36499;46.484;13.832;2023-04-03T06:20:17;5.00;99.90
12470;DHT22;36499;46.484;13.832;2023-04-03T06:22:45;5.10;99.90
12470;DHT22;36499;46.484;13.832;2023-04-03T06:25:14;5.20;99.90
12470;DHT22;36499;46.484;13.832;2023-04-03T06:27:43;5.30;99.90
12470;DHT22;36499;46.484;13.832;2023-04-03T06:30:10;5.40;99.90
12470;DHT22;36499;46.484;13.832;2023-04-03T06:32:38;5.40;99.90
12470;DHT22;36499;46.484;13.832;2023-04-03T06:35:06;5.40;99.90
12470;DHT22;36499;46.484;13.832;2023-04-03T06:37:34;5.50;99.90
12470;DHT22;36499;46.484;13.832;2023-04-03T06:40:02;5.50;99.90
12470;DHT22;36499;46.484;13.832;2023-04-03T06:42:31;5.60;99.90
12470;DHT22;36499;46.484;13.832;2023-04-03T06:44:58;5.70;99.90
12470;DHT22;36499;46.484;13.832;2023-04-03T06:47:25;5.80;99.90
12470;DHT22;36499;46.484;13.832;2023-04-03T06:49:53;5.90;99.90
12470;DHT22;36499;46.484;13.832;2023-04-03T06:52:20;6.00;99.90
12470;DHT22;36499;46.484;13.832;2023-04-03T06:54:47;6.00;99.90
12470;DHT22;36499;46.484;13.832;2023-04-03T06:57:14;6.10;99.90
12470;DHT22;36499;46.484;13.832;2023-04-03T06:59:43;6.10;99.90
12470;DHT22;36499;46.484;13.832;2023-04-03T07:02:11;6.10;99.90
12470;DHT22;36499;46.484;13.832;2023-04-03T07:04:39;6.20;99.90
12470;DHT22;36499;46.484;13.832;2023-04-03T07:07:06;6.20;99.90
12470;DHT22;36499;46.484;13.832;2023-04-03T07:09:34;6.30;99.90
12470;DHT22;36499;46.484;13.832;2023-04-03T07:12:01;6.40;99.90
12470;DHT22;36499;46.484;13.832;2023-04-03T07:14:29;6.50;99.90
12470;DHT22;36499;46.484;13.832;2023-04-03T07:16:57;6.60;99.90
12470;DHT22;36499;46.484;13.832;2023-04-03T07:19:24;6.60;99.90
12470;DHT22;36499;46.484;13.832;2023-04-03T07:21:53;6.70;99.90
12470;DHT22;36499;46.484;13.832;2023-04-03T07:24:20;6.70;99.90
12470;DHT22;36499;46.484;13.832;2023-04-03T07:26:49;6.80;99.90
12470;DHT22;36499;46.484;13.832;2023-04-03T07:29:17;6.90;99.90
12470;DHT22;36499;46.484;13.832;2023-04-03T07:31:44;7.10;99.90
12470;DHT22;36499;46.484;13.832;2023-04-03T07:34:12;7.20;99.90
12470;DHT22;36499;46.484;13.832;2023-04-03T07:36:40;7.30;99.90
12470;DHT22;36499;46.484;13.832;2023-04-03T07:39:07;7.40;99.90
12470;DHT22;36499;46.484;13.832;2023-04-03T07:41:34;7.60;99.90
12470;DHT22;36499;46.484;13.832;2023-04-03T07:44:01;7.80;98.70
12470;DHT22;36499;46.484;13.832;2023-04-03T07:46:30;8.00;96.90
12470;DHT22;36499;46.484;13.832;2023-04-03T07:48:57;8.20;97.90
12470;DHT22;36499;46.484;13.832;2023-04-03T07:51:26;8.40;96.80
12470;DHT22;36499;46.484;13.832;2023-04-03T07:53:55;8.60;94.10
12470;DHT22;36499;46.484;13.832;2023-04-03T07:56:22;8.80;92.90
12470;DHT22;36499;46.484;13.832;2023-04-03T07:58:50;9.00;92.10
12470;DHT22;36499;46.484;13.832;2023-04-03T08:01:17;9.30;90.30
12470;DHT22;36499;46.484;13.832;2023-04-03T08:03:45;9.40;88.10
12470;DHT22;36499;46.484;13.832;2023-04-03T08:06:12;9.60;87.50
12470;DHT22;36499;46.484;13.832;2023-04-03T08:08:41;9.70;86.20
12470;DHT22;36499;46.484;13.832;2023-04-03T08:11:10;9.90;83.00
12470;DHT22;36499;46.484;13.832;2023-04-03T08:13:37;10.10;80.30
12470;DHT22;36499;46.484;13.832;2023-04-03T08:16:08;10.20;78.00
12470;DHT22;36499;46.484;13.832;2023-04-03T08:18:36;10.30;76.40
12470;DHT22;36499;46.484;13.832;2023-04-03T08:21:08;10.40;74.30
12470;DHT22;36499;46.484;13.832;2023-04-03T08:23:36;10.50;72.70
12470;DHT22;36499;46.484;13.832;2023-04-03T08:26:10;10.60;71.60
12470;DHT22;36499;46.484;13.832;2023-04-03T08:28:38;10.60;70.90
12470;DHT22;36499;46.484;13.832;2023-04-03T08:31:10;10.70;70.80
12470;DHT22;36499;46.484;13.832;2023-04-03T08:33:39;10.70;70.00
12470;DHT22;36499;46.484;13.832;2023-04-03T08:36:15;10.90;70.10
12470;DHT22;36499;46.484;13.832;2023-04-03T08:38:44;11.00;69.30
12470;DHT22;36499;46.484;13.832;2023-04-03T08:41:15;11.00;68.40
12470;DHT22;36499;46.484;13.832;2023-04-03T08:44:02;11.10;67.70
12470;DHT22;36499;46.484;13.832;2023-04-03T08:46:42;11.30;67.20
12470;DHT22;36499;46.484;13.832;2023-04-03T08:49:24;11.30;66.20
12470;DHT22;36499;46.484;13.832;2023-04-03T08:51:55;11.40;65.40
12470;DHT22;36499;46.484;13.832;2023-04-03T08:54:29;11.50;64.60
12470;DHT22;36499;46.484;13.832;2023-04-03T08:57:02;11.60;64.10
12470;DHT22;36499;46.484;13.832;2023-04-03T08:59:34;11.60;62.90
12470;DHT22;36499;46.484;13.832;2023-04-03T09:02:17;11.70;62.50
12470;DHT22;36499;46.484;13.832;2023-04-03T09:04:52;11.80;62.70
12470;DHT22;36499;46.484;13.832;2023-04-03T09:07:24;11.90;62.60
12470;DHT22;36499;46.484;13.832;2023-04-03T09:10:00;12.00;60.90
12470;DHT22;36499;46.484;13.832;2023-04-03T09:12:34;12.00;59.60
12470;DHT22;36499;46.484;13.832;2023-04-03T09:15:13;12.10;60.00
12470;DHT22;36499;46.484;13.832;2023-04-03T09:17:53;12.10;59.80
12470;DHT22;36499;46.484;13.832;2023-04-03T09:20:36;12.20;59.40
12470;DHT22;36499;46.484;13.832;2023-04-03T09:23:17;12.30;58.30
12470;DHT22;36499;46.484;13.832;2023-04-03T09:25:51;12.30;58.60
12470;DHT22;36499;46.484;13.832;2023-04-03T09:28:25;12.40;58.80
12470;DHT22;36499;46.484;13.832;2023-04-03T09:30:53;12.40;57.70
12470;DHT22;36499;46.484;13.832;2023-04-03T09:33:20;12.50;57.50
12470;DHT22;36499;46.484;13.832;2023-04-03T09:35:50;12.50;56.90
12470;DHT22;36499;46.484;13.832;2023-04-03T09:38:19;12.50;56.30
12470;DHT22;36499;46.484;13.832;2023-04-03T09:40:49;12.70;56.20
12470;DHT22;36499;46.484;13.832;2023-04-03T09:43:26;12.90;56.60
12470;DHT22;36499;46.484;13.832;2023-04-03T09:45:57;13.00;55.30
12470;DHT22;36499;46.484;13.832;2023-04-03T09:48:50;13.20;56.00
12470;DHT22;36499;46.484;13.832;2023-04-03T09:51:19;13.30;55.20
12470;DHT22;36499;46.484;13.832;2023-04-03T09:53:46;13.40;56.00
12470;DHT22;36499;46.484;13.832;2023-04-03T09:56:22;13.50;53.80
12470;DHT22;36499;46.484;13.832;2023-04-03T09:59:08;13.60;53.90
12470;DHT22;36499;46.484;13.832;2023-04-03T10:01:43;13.80;54.50
12470;DHT22;36499;46.484;13.832;2023-04-03T10:04:25;13.90;53.60
12470;DHT22;36499;46.484;13.832;2023-04-03T10:06:54;14.00;53.30
12470;DHT22;36499;46.484;13.832;2023-04-03T10:09:24;14.10;51.90
12470;DHT22;36499;46.484;13.832;2023-04-03T10:12:01;14.10;51.90
12470;DHT22;36499;46.484;13.832;2023-04-03T10:14:34;14.20;53.00
12470;DHT22;36499;46.484;13.832;2023-04-03T10:17:13;14.40;51.70
12470;DHT22;36499;46.484;13.832;2023-04-03T10:19:47;14.50;52.00
12470;DHT22;36499;46.484;13.832;2023-04-03T10:22:24;14.60;50.20
12470;DHT22;36499;46.484;13.832;2023-04-03T10:25:03;14.70;50.20
12470;DHT22;36499;46.484;13.832;2023-04-03T10:27:44;14.70;49.30
12470;DHT22;36499;46.484;13.832;2023-04-03T10:30:40;14.80;49.60
12470;DHT22;36499;46.484;13.832;2023-04-03T10:33:26;14.90;49.60
12470;DHT22;36499;46.484;13.832;2023-04-03T10:36:07;14.90;48.30
12470;DHT22;36499;46.484;13.832;2023-04-03T10:38:48;14.90;48.20
12470;DHT22;36499;46.484;13.832;2023-04-03T10:41:25;14.90;47.90
12470;DHT22;36499;46.484;13.832;2023-04-03T10:44:08;15.00;48.40
12470;DHT22;36499;46.484;13.832;2023-04-03T10:46:47;15.10;49.20
12470;DHT22;36499;46.484;13.832;2023-04-03T10:49:28;15.10;48.10
12470;DHT22;36499;46.484;13.832;2023-04-03T10:52:11;15.30;48.90
12470;DHT22;36499;46.484;13.832;2023-04-03T10:54:48;15.30;47.80
12470;DHT22;36499;46.484;13.832;2023-04-03T10:57:29;15.30;47.70
12470;DHT22;36499;46.484;13.832;2023-04-03T11:00:00;15.40;47.70
12470;DHT22;36499;46.484;13.832;2023-04-03T11:02:37;15.40;47.10
12470;DHT22;36499;46.484;13.832;2023-04-03T11:05:17;15.50;46.80
12470;DHT22;36499;46.484;13.832;2023-04-03T11:07:53;15.50;46.80
12470;DHT22;36499;46.484;13.832;2023-04-03T11:10:30;15.40;46.50
12470;DHT22;36499;46.484;13.832;2023-04-03T11:13:08;15.40;46.90
12470;DHT22;36499;46.484;13.832;2023-04-03T11:15:39;15.50;46.90
12470;DHT22;36499;46.484;13.832;2023-04-03T11:18:12;15.60;46.20
12470;DHT22;36499;46.484;13.832;2023-04-03T11:20:48;15.80;46.80
12470;DHT22;36499;46.484;13.832;2023-04-03T11:23:24;16.00;46.40
12470;DHT22;36499;46.484;13.832;2023-04-03T11:25:55;16.10;45.90
12470;DHT22;36499;46.484;13.832;2023-04-03T11:28:28;16.20;45.90
12470;DHT22;36499;46.484;13.832;2023-04-03T11:31:01;16.30;45.00
12470;DHT22;36499;46.484;13.832;2023-04-03T11:33:50;16.30;44.80
12470;DHT22;36499;46.484;13.832;2023-04-03T11:36:26;16.30;44.90
12470;DHT22;36499;46.484;13.832;2023-04-03T11:38:59;16.20;44.20
12470;DHT22;36499;46.484;13.832;2023-04-03T11:41:30;16.00;43.60
12470;DHT22;36499;46.484;13.832;2023-04-03T11:44:00;15.90;42.60
12470;DHT22;36499;46.484;13.832;2023-04-03T11:46:50;15.80;43.50
12470;DHT22;36499;46.484;13.832;2023-04-03T11:55:43;15.90;42.90
12470;DHT22;36499;46.484;13.832;2023-04-03T11:58:19;15.90;42.80
12470;DHT22;36499;46.484;13.832;2023-04-03T12:01:09;15.90;43.20
12470;DHT22;36499;46.484;13.832;2023-04-03T12:06:54;16.00;43.40
12470;DHT22;36499;46.484;13.832;2023-04-03T12:10:02;16.20;43.80
12470;DHT22;36499;46.484;13.832;2023-04-03T12:12:43;16.20;43.20
12470;DHT22;36499;46.484;13.832;2023-04-03T12:18:57;16.40;43.10
12470;DHT22;36499;46.484;13.832;2023-04-03T12:22:12;16.50;43.30
12470;DHT22;36499;46.484;13.832;2023-04-03T12:24:44;16.70;43.30
12470;DHT22;36499;46.484;13.832;2023-04-03T12:27:36;16.90;43.20
12470;DHT22;36499;46.484;13.832;2023-04-03T12:30:18;16.90;42.60
12470;DHT22;36499;46.484;13.832;2023-04-03T12:33:10;16.90;42.90
12470;DHT22;36499;46.484;13.832;2023-04-03T12:35:56;16.90;43.20
12470;DHT22;36499;46.484;13.832;2023-04-03T12:38:58;17.00;43.20
12470;DHT22;36499;46.484;13.832;2023-04-03T12:41:37;17.20;43.00
12470;DHT22;36499;46.484;13.832;2023-04-03T12:44:31;17.20;43.10
12470;DHT22;36499;46.484;13.832;2023-04-03T12:47:21;17.30;43.70
12470;DHT22;36499;46.484;13.832;2023-04-03T12:49:53;17.60;42.60
12470;DHT22;36499;46.484;13.832;2023-04-03T12:52:32;17.60;42.10
12470;DHT22;36499;46.484;13.832;2023-04-03T12:55:12;17.70;42.40
12470;DHT22;36499;46.484;13.832;2023-04-03T12:57:43;17.70;41.40
12470;DHT22;36499;46.484;13.832;2023-04-03T13:00:32;17.70;41.40
12470;DHT22;36499;46.484;13.832;2023-04-03T13:03:02;17.70;40.40
12470;DHT22;36499;46.484;13.832;2023-04-03T13:05:32;17.70;40.60
12470;DHT22;36499;46.484;13.832;2023-04-03T13:08:01;17.70;40.60
12470;DHT22;36499;46.484;13.832;2023-04-03T13:10:33;17.60;40.60
12470;DHT22;36499;46.484;13.832;2023-04-03T13:13:18;17.50;40.30
12470;DHT22;36499;46.484;13.832;2023-04-03T13:15:48;17.20;40.70
12470;DHT22;36499;46.484;13.832;2023-04-03T13:18:28;17.30;41.30
12470;DHT22;36499;46.484;13.832;2023-04-03T13:21:01;17.40;41.00
12470;DHT22;36499;46.484;13.832;2023-04-03T13:23:32;17.50;40.60
12470;DHT22;36499;46.484;13.832;2023-04-03T13:26:04;17.50;40.30
12470;DHT22;36499;46.484;13.832;2023-04-03T13:28:33;17.70;40.90
12470;DHT22;36499;46.484;13.832;2023-04-03T13:31:05;17.70;40.40
12470;DHT22;36499;46.484;13.832;2023-04-03T13:33:37;17.80;40.30
12470;DHT22;36499;46.484;13.832;2023-04-03T13:36:06;17.80;40.10
12470;DHT22;36499;46.484;13.832;2023-04-03T13:38:38;17.80;39.90
12470;DHT22;36499;46.484;13.832;2023-04-03T13:41:23;17.70;39.90
12470;DHT22;36499;46.484;13.832;2023-04-03T13:43:52;17.70;40.00
12470;DHT22;36499;46.484;13.832;2023-04-03T13:46:25;17.70;39.80
12470;DHT22;36499;46.484;13.832;2023-04-03T13:48:56;17.70;39.60
12470;DHT22;36499;46.484;13.832;2023-04-03T13:51:27;17.80;39.40
12470;DHT22;36499;46.484;13.832;2023-04-03T13:53:57;17.80;39.40
12470;DHT22;36499;46.484;13.832;2023-04-03T13:56:31;17.90;39.30
12470;DHT22;36499;46.484;13.832;2023-04-03T13:59:06;18.00;39.00
12470;DHT22;36499;46.484;13.832;2023-04-03T14:01:53;18.10;39.20
12470;DHT22;36499;46.484;13.832;2023-04-03T14:04:23;18.20;38.50
12470;DHT22;36499;46.484;13.832;2023-04-03T14:06:53;18.10;38.60
12470;DHT22;36499;46.484;13.832;2023-04-03T14:09:21;18.20;38.50
12470;DHT22;36499;46.484;13.832;2023-04-03T14:11:54;18.00;38.70
12470;DHT22;36499;46.484;13.832;2023-04-03T14:14:27;18.10;39.10
12470;DHT22;36499;46.484;13.832;2023-04-03T14:16:59;18.00;37.80
12470;DHT22;36499;46.484;13.832;2023-04-03T14:19:30;17.80;38.20
12470;DHT22;36499;46.484;13.832;2023-04-03T14:22:01;17.80;38.20
12470;DHT22;36499;46.484;13.832;2023-04-03T14:24:37;17.80;38.20
12470;DHT22;36499;46.484;13.832;2023-04-03T14:27:15;17.70;42.00
12470;DHT22;36499;46.484;13.832;2023-04-03T14:29:45;17.70;43.00
12470;DHT22;36499;46.484;13.832;2023-04-03T14:32:13;17.70;42.40
12470;DHT22;36499;46.484;13.832;2023-04-03T14:34:43;17.90;39.10
12470;DHT22;36499;46.484;13.832;2023-04-03T14:37:12;18.00;38.40
12470;DHT22;36499;46.484;13.832;2023-04-03T14:39:41;17.90;38.10
12470;DHT22;36499;46.484;13.832;2023-04-03T14:42:15;17.90;38.10
12470;DHT22;36499;46.484;13.832;2023-04-03T14:44:44;17.70;37.50
12470;DHT22;36499;46.484;13.832;2023-04-03T14:47:13;17.30;37.50
12470;DHT22;36499;46.484;13.832;2023-04-03T14:49:43;17.00;38.10
12470;DHT22;36499;46.484;13.832;2023-04-03T14:52:18;16.90;38.40
12470;DHT22;36499;46.484;13.832;2023-04-03T14:54:47;16.90;38.60
12470;DHT22;36499;46.484;13.832;2023-04-03T14:57:16;17.00;38.90
12470;DHT22;36499;46.484;13.832;2023-04-03T14:59:44;16.70;38.00
12470;DHT22;36499;46.484;13.832;2023-04-03T15:02:25;16.60;38.60
12470;DHT22;36499;46.484;13.832;2023-04-03T15:04:55;16.30;38.90
12470;DHT22;36499;46.484;13.832;2023-04-03T15:07:25;16.30;39.00
12470;DHT22;36499;46.484;13.832;2023-04-03T15:09:55;16.20;39.20
12470;DHT22;36499;46.484;13.832;2023-04-03T15:12:24;16.20;39.00
12470;DHT22;36499;46.484;13.832;2023-04-03T15:14:52;16.10;39.40
12470;DHT22;36499;46.484;13.832;2023-04-03T15:17:21;16.20;40.10
12470;DHT22;36499;46.484;13.832;2023-04-03T15:19:49;16.20;39.60
12470;DHT22;36499;46.484;13.832;2023-04-03T15:22:20;16.10;39.60
12470;DHT22;36499;46.484;13.832;2023-04-03T15:24:47;16.10;39.80
12470;DHT22;36499;46.484;13.832;2023-04-03T15:27:15;15.90;39.90
12470;DHT22;36499;46.484;13.832;2023-04-03T15:29:44;15.80;40.40
12470;DHT22;36499;46.484;13.832;2023-04-03T15:32:12;15.80;40.20
12470;DHT22;36499;46.484;13.832;2023-04-03T15:34:40;15.70;40.20
12470;DHT22;36499;46.484;13.832;2023-04-03T15:37:08;15.60;40.40
12470;DHT22;36499;46.484;13.832;2023-04-03T15:39:35;15.40;40.20
12470;DHT22;36499;46.484;13.832;2023-04-03T15:42:03;15.20;40.60
12470;DHT22;36499;46.484;13.832;2023-04-03T15:44:32;15.00;40.90
12470;DHT22;36499;46.484;13.832;2023-04-03T15:47:02;14.70;41.10
12470;DHT22;36499;46.484;13.832;2023-04-03T15:49:29;14.40;41.40
12470;DHT22;36499;46.484;13.832;2023-04-03T15:51:59;14.10;41.80
12470;DHT22;36499;46.484;13.832;2023-04-03T15:54:26;13.90;42.50
12470;DHT22;36499;46.484;13.832;2023-04-03T15:56:55;13.80;42.60
12470;DHT22;36499;46.484;13.832;2023-04-03T15:59:22;13.60;43.00
12470;DHT22;36499;46.484;13.832;2023-04-03T16:01:51;13.50;43.20
12470;DHT22;36499;46.484;13.832;2023-04-03T16:04:20;13.30;42.90